createdAt,value
2022-08-23T00:02:28.409Z,19.00
2022-08-23T00:05:08.846Z,18.80
2022-08-23T00:07:44.725Z,18.80
2022-08-23T00:10:16.308Z,18.80
2022-08-23T00:12:45.859Z,18.80
2022-08-23T00:15:16.079Z,18.80
2022-08-23T00:17:44.271Z,18.60
2022-08-23T00:20:15.287Z,18.50
2022-08-23T00:22:42.028Z,18.60
2022-08-23T00:25:10.889Z,18.50
2022-08-23T00:27:37.817Z,18.50
2022-08-23T00:30:08.459Z,18.40
2022-08-23T00:32:38.832Z,18.20
2022-08-23T00:35:09.816Z,18.10
2022-08-23T00:37:37.926Z,18.10
2022-08-23T00:40:07.741Z,18.20
2022-08-23T00:42:51.274Z,18.20
2022-08-23T00:45:35.893Z,18.20
2022-08-23T00:48:05.805Z,18.20
2022-08-23T00:50:43.499Z,18.20
2022-08-23T00:53:26.072Z,18.20
2022-08-23T00:56:01.171Z,18.20
2022-08-23T00:58:34.668Z,18.20
2022-08-23T01:01:05.340Z,18.20
2022-08-23T01:03:38.989Z,18.30
2022-08-23T01:06:41.745Z,18.20
2022-08-23T01:09:13.642Z,18.20
2022-08-23T01:11:57.106Z,18.20
2022-08-23T01:14:40.763Z,18.10
2022-08-23T01:17:16.340Z,18.00
2022-08-23T01:19:56.104Z,18.10
2022-08-23T01:22:27.146Z,18.30
2022-08-23T01:25:07.654Z,18.30
2022-08-23T01:27:37.450Z,18.20
2022-08-23T01:30:11.629Z,18.10
2022-08-23T01:32:46.715Z,18.20
2022-08-23T01:35:15.559Z,18.10
2022-08-23T01:37:44.529Z,18.20
2022-08-23T01:40:16.618Z,18.20
2022-08-23T01:42:47.165Z,18.10
2022-08-23T01:45:15.644Z,17.90
2022-08-23T01:47:42.750Z,17.80
2022-08-23T01:50:11.287Z,17.80
2022-08-23T01:52:38.899Z,18.00
2022-08-23T01:55:16.233Z,18.10
2022-08-23T01:57:46.968Z,18.20
2022-08-23T02:00:17.901Z,18.30
2022-08-23T02:02:44.662Z,18.30
2022-08-23T02:05:11.361Z,18.30
2022-08-23T02:07:38.110Z,18.30
2022-08-23T02:10:08.972Z,18.30
2022-08-23T02:12:37.401Z,18.30
2022-08-23T02:15:05.926Z,18.10
2022-08-23T02:17:34.391Z,18.10
2022-08-23T02:20:03.527Z,17.90
2022-08-23T02:22:32.143Z,17.80
2022-08-23T02:24:59.697Z,17.70
2022-08-23T02:27:27.718Z,17.60
2022-08-23T02:29:55.759Z,17.60
2022-08-23T02:32:26.986Z,17.50
2022-08-23T02:35:05.273Z,17.70
2022-08-23T02:37:34.815Z,17.70
2022-08-23T02:40:04.315Z,17.60
2022-08-23T02:42:32.529Z,17.70
2022-08-23T02:44:59.237Z,17.70
2022-08-23T02:47:26.008Z,17.60
2022-08-23T02:49:53.981Z,17.60
2022-08-23T02:52:22.215Z,17.50
2022-08-23T02:54:50.013Z,17.50
2022-08-23T02:57:21.287Z,17.50
2022-08-23T02:59:53.145Z,17.50
2022-08-23T03:02:23.123Z,17.60
2022-08-23T03:04:52.151Z,17.70
2022-08-23T03:07:28.550Z,17.80
2022-08-23T03:09:56.300Z,17.80
2022-08-23T03:12:24.301Z,17.80
2022-08-23T03:14:52.076Z,17.90
2022-08-23T03:17:20.212Z,17.90
2022-08-23T03:19:46.846Z,17.80
2022-08-23T03:22:15.001Z,17.70
2022-08-23T03:24:42.934Z,17.70
2022-08-23T03:27:09.605Z,17.70
2022-08-23T03:29:38.428Z,17.60
2022-08-23T03:32:06.817Z,17.60
2022-08-23T03:34:34.650Z,17.60
2022-08-23T03:37:03.481Z,17.80
2022-08-23T03:39:31.598Z,17.80
2022-08-23T03:42:01.906Z,17.80
2022-08-23T03:44:29.685Z,17.80
2022-08-23T03:46:57.681Z,17.90
2022-08-23T03:49:24.573Z,17.90
2022-08-23T03:51:51.497Z,17.90
2022-08-23T03:54:18.922Z,18.00
2022-08-23T03:56:59.334Z,17.90
2022-08-23T03:59:27.060Z,17.90
2022-08-23T04:01:54.082Z,17.90
2022-08-23T04:04:21.003Z,17.90
2022-08-23T04:06:49.458Z,17.90
2022-08-23T04:09:17.615Z,17.90
2022-08-23T04:11:45.678Z,17.80
2022-08-23T04:14:13.575Z,17.70
2022-08-23T04:16:41.618Z,17.70
2022-08-23T04:19:11.431Z,17.60
2022-08-23T04:21:42.281Z,17.50
2022-08-23T04:24:10.096Z,17.40
2022-08-23T04:26:38.004Z,17.40
2022-08-23T04:29:06.081Z,17.40
2022-08-23T04:31:36.023Z,17.40
2022-08-23T04:34:07.998Z,17.40
2022-08-23T04:36:40.579Z,17.40
2022-08-23T04:39:13.078Z,17.50
2022-08-23T04:41:41.508Z,17.50
2022-08-23T04:44:17.860Z,17.50
2022-08-23T04:46:46.166Z,17.40
2022-08-23T04:49:16.740Z,17.40
2022-08-23T04:51:53.451Z,17.40
2022-08-23T04:54:23.759Z,17.40
2022-08-23T04:56:52.066Z,17.30
2022-08-23T04:59:19.865Z,17.30
2022-08-23T05:01:46.534Z,17.40
2022-08-23T05:04:13.186Z,17.40
2022-08-23T05:06:41.391Z,17.40
2022-08-23T05:09:09.430Z,17.30
2022-08-23T05:11:37.655Z,17.20
2022-08-23T05:14:05.986Z,17.20
2022-08-23T05:16:32.708Z,17.20
2022-08-23T05:18:59.464Z,17.30
2022-08-23T05:21:27.310Z,17.40
2022-08-23T05:23:55.257Z,17.30
2022-08-23T05:26:23.197Z,17.30
2022-08-23T05:28:51.075Z,17.30
2022-08-23T05:31:25.173Z,17.30
2022-08-23T05:33:53.872Z,17.30
2022-08-23T05:36:22.237Z,17.20
2022-08-23T05:38:50.503Z,17.20
2022-08-23T05:41:18.590Z,17.30
2022-08-23T05:43:51.218Z,17.40
2022-08-23T05:46:26.641Z,17.40
2022-08-23T05:48:56.610Z,17.40
2022-08-23T05:51:29.820Z,17.40
2022-08-23T05:54:05.173Z,17.40
2022-08-23T05:56:38.568Z,17.50
2022-08-23T05:59:12.493Z,17.40
2022-08-23T06:01:42.301Z,17.40
2022-08-23T06:04:13.062Z,17.40
2022-08-23T06:06:43.399Z,17.50
2022-08-23T06:09:17.169Z,17.60
2022-08-23T06:11:53.281Z,17.60
2022-08-23T06:14:20.346Z,17.60
2022-08-23T06:16:53.653Z,17.70
2022-08-23T06:19:26.782Z,17.70
2022-08-23T06:21:54.559Z,17.80
2022-08-23T06:24:29.600Z,17.80
2022-08-23T06:26:56.567Z,17.90
2022-08-23T06:29:24.461Z,17.90
2022-08-23T06:31:55.511Z,17.90
2022-08-23T06:34:37.342Z,18.00
2022-08-23T06:37:12.882Z,18.10
2022-08-23T06:39:41.663Z,18.20
2022-08-23T06:42:37.583Z,18.20
2022-08-23T06:45:04.482Z,18.20
2022-08-23T06:47:36.320Z,18.30
2022-08-23T06:50:03.554Z,18.40
2022-08-23T06:52:30.231Z,18.40
2022-08-23T06:54:58.534Z,18.40
2022-08-23T06:57:26.574Z,18.50
2022-08-23T06:59:54.435Z,18.60
2022-08-23T07:02:22.340Z,18.70
2022-08-23T07:04:50.353Z,18.70
2022-08-23T07:07:18.249Z,18.70
2022-08-23T07:09:45.012Z,18.70
2022-08-23T07:12:11.763Z,18.80
2022-08-23T07:14:39.699Z,18.90
2022-08-23T07:17:07.676Z,19.10
2022-08-23T07:19:36.374Z,19.20
2022-08-23T07:22:05.968Z,19.40
2022-08-23T07:24:33.973Z,19.60
2022-08-23T07:27:04.343Z,19.70
2022-08-23T07:29:32.360Z,19.80
2022-08-23T07:32:00.163Z,19.90
2022-08-23T07:34:28.725Z,19.90
2022-08-23T07:36:56.726Z,20.00
2022-08-23T07:39:24.403Z,19.90
2022-08-23T07:41:52.458Z,19.90
2022-08-23T07:44:23.550Z,20.00
2022-08-23T07:46:55.464Z,20.20
2022-08-23T07:49:23.582Z,20.30
2022-08-23T07:51:57.436Z,20.40
2022-08-23T07:54:25.273Z,20.40
2022-08-23T07:56:53.194Z,20.50
2022-08-23T07:59:32.752Z,20.50
2022-08-23T08:02:02.511Z,20.50
2022-08-23T08:04:31.019Z,20.60
2022-08-23T08:07:18.370Z,20.60
2022-08-23T08:09:47.299Z,20.70
2022-08-23T08:12:15.418Z,20.70
2022-08-23T08:14:43.571Z,20.80
2022-08-23T08:17:11.441Z,21.00
2022-08-23T08:19:41.444Z,21.00
2022-08-23T08:22:09.497Z,21.00
2022-08-23T08:24:37.459Z,21.10
2022-08-23T08:27:04.417Z,21.20
2022-08-23T08:29:32.595Z,21.30
2022-08-23T08:32:00.717Z,21.50
2022-08-23T08:34:28.634Z,21.50
2022-08-23T08:36:58.491Z,21.30
2022-08-23T08:39:31.079Z,21.20
2022-08-23T08:42:09.712Z,21.40
2022-08-23T08:44:53.487Z,21.50
2022-08-23T08:47:52.968Z,21.60
2022-08-23T08:50:32.359Z,21.60
2022-08-23T08:53:23.077Z,21.60
2022-08-23T08:56:00.828Z,21.70
2022-08-23T08:58:41.128Z,21.80
2022-08-23T09:01:08.371Z,21.80
2022-08-23T09:03:36.724Z,21.80
2022-08-23T09:06:24.999Z,22.00
2022-08-23T09:09:15.946Z,22.10
2022-08-23T09:11:45.709Z,21.90
2022-08-23T09:14:53.536Z,21.90
2022-08-23T09:17:28.180Z,22.00
2022-08-23T09:19:59.588Z,22.20
2022-08-23T09:22:43.863Z,22.10
2022-08-23T09:25:13.819Z,21.90
2022-08-23T09:27:43.762Z,21.80
2022-08-23T09:30:17.268Z,21.90
2022-08-23T09:32:46.595Z,21.90
2022-08-23T09:35:16.141Z,22.00
2022-08-23T09:37:57.736Z,22.10
2022-08-23T09:40:44.358Z,22.20
2022-08-23T09:43:26.216Z,22.30
2022-08-23T09:46:00.355Z,22.40
2022-08-23T09:48:36.018Z,22.50
2022-08-23T09:51:24.061Z,22.60
2022-08-23T09:54:05.736Z,22.70
2022-08-23T09:56:37.478Z,22.60
2022-08-23T09:59:26.633Z,22.60
2022-08-23T10:01:58.400Z,22.70
2022-08-23T10:04:58.785Z,22.80
2022-08-23T10:08:00.325Z,22.90
2022-08-23T10:10:53.780Z,23.00
2022-08-23T10:13:20.718Z,22.80
2022-08-23T10:15:59.311Z,22.60
2022-08-23T10:18:47.628Z,22.70
2022-08-23T10:21:32.868Z,22.80
2022-08-23T10:24:41.035Z,23.00
2022-08-23T10:27:22.371Z,22.90
2022-08-23T10:29:53.361Z,22.70
2022-08-23T10:32:36.588Z,22.70
2022-08-23T10:35:39.179Z,22.90
2022-08-23T10:38:33.657Z,22.90
2022-08-23T10:41:07.915Z,23.00
2022-08-23T10:44:12.525Z,23.10
2022-08-23T10:46:53.914Z,23.30
2022-08-23T10:49:23.788Z,23.40
2022-08-23T10:51:53.043Z,23.50
2022-08-23T10:54:34.763Z,23.70
2022-08-23T10:57:06.204Z,23.90
2022-08-23T10:59:35.944Z,23.80
2022-08-23T11:02:17.274Z,23.70
2022-08-23T11:04:59.753Z,23.80
2022-08-23T11:07:40.352Z,24.00
2022-08-23T11:10:26.464Z,24.10
2022-08-23T11:12:59.943Z,24.00
2022-08-23T11:15:45.886Z,23.70
2022-08-23T11:18:33.313Z,23.70
2022-08-23T11:21:10.377Z,23.40
2022-08-23T11:23:45.122Z,23.50
2022-08-23T11:26:38.809Z,23.50
2022-08-23T11:29:20.433Z,23.70
2022-08-23T11:32:16.756Z,23.90
2022-08-23T11:34:58.285Z,24.10
2022-08-23T11:37:30.455Z,24.10
2022-08-23T11:40:00.282Z,24.00
2022-08-23T11:42:50.778Z,24.10
2022-08-23T11:45:37.675Z,24.30
2022-08-23T11:48:43.491Z,24.50
2022-08-23T11:51:43.982Z,24.50
2022-08-23T11:54:29.467Z,24.40
2022-08-23T11:57:19.564Z,24.50
2022-08-23T12:00:32.521Z,24.60
2022-08-23T12:03:31.834Z,24.80
2022-08-23T12:06:34.218Z,25.00
2022-08-23T12:09:14.188Z,25.10
2022-08-23T12:11:56.121Z,25.40
2022-08-23T12:14:43.942Z,25.70
2022-08-23T12:17:16.922Z,26.10
2022-08-23T12:20:06.125Z,26.30
2022-08-23T12:23:21.961Z,26.50
2022-08-23T12:26:04.758Z,26.70
2022-08-23T12:28:45.830Z,26.90
2022-08-23T12:31:25.079Z,26.70
2022-08-23T12:34:03.792Z,26.40
2022-08-23T12:36:46.206Z,26.40
2022-08-23T12:39:27.328Z,26.50
2022-08-23T12:42:13.856Z,26.70
2022-08-23T12:44:44.144Z,27.20
2022-08-23T12:47:20.497Z,27.50
2022-08-23T12:50:40.573Z,27.70
2022-08-23T12:53:27.431Z,27.90
2022-08-23T12:56:07.852Z,27.80
2022-08-23T12:58:39.542Z,27.60
2022-08-23T13:01:30.170Z,27.20
2022-08-23T13:04:06.063Z,26.80
2022-08-23T13:07:02.779Z,26.40
2022-08-23T13:09:40.147Z,26.10
2022-08-23T13:12:08.927Z,25.80
2022-08-23T13:14:46.948Z,25.70
2022-08-23T13:17:22.365Z,26.20
2022-08-23T13:19:52.876Z,26.60
2022-08-23T13:22:25.750Z,26.80
2022-08-23T13:25:28.550Z,27.10
2022-08-23T13:28:07.567Z,27.50
2022-08-23T13:30:38.387Z,28.00
2022-08-23T13:33:31.382Z,28.40
2022-08-23T13:36:32.377Z,28.60
2022-08-23T13:39:06.198Z,28.60
2022-08-23T13:41:39.133Z,28.80
2022-08-23T13:44:08.341Z,28.90
2022-08-23T13:46:44.904Z,29.20
2022-08-23T13:49:22.203Z,29.20
2022-08-23T13:52:24.616Z,29.40
2022-08-23T13:54:52.484Z,29.30
2022-08-23T13:57:22.214Z,29.70
2022-08-23T13:59:52.750Z,29.90
2022-08-23T14:02:21.399Z,30.20
2022-08-23T14:04:48.601Z,30.30
2022-08-23T14:07:16.774Z,30.20
2022-08-23T14:09:45.553Z,30.00
2022-08-23T14:12:22.699Z,29.70
2022-08-23T14:14:49.982Z,29.60
2022-08-23T14:17:20.173Z,29.60
2022-08-23T14:20:31.993Z,29.40
2022-08-23T14:22:38.992Z,29.10
2022-08-23T14:25:07.145Z,28.60
2022-08-23T14:27:34.320Z,28.40
2022-08-23T14:30:01.187Z,28.20
2022-08-23T14:32:27.899Z,27.90
2022-08-23T14:34:54.724Z,27.80
2022-08-23T14:40:11.365Z,27.30
2022-08-23T14:42:38.239Z,27.20
2022-08-23T14:45:05.870Z,27.10
2022-08-23T14:47:33.805Z,26.90
2022-08-23T14:50:02.869Z,26.80
2022-08-23T14:52:29.667Z,27.00
2022-08-23T14:54:57.622Z,27.40
2022-08-23T14:57:25.562Z,27.80
2022-08-23T14:59:52.372Z,28.30
2022-08-23T15:02:23.922Z,28.70
2022-08-23T15:04:53.130Z,28.80
2022-08-23T15:07:22.489Z,28.70
2022-08-23T15:09:52.083Z,28.30
2022-08-23T15:15:13.200Z,27.60
2022-08-23T15:17:51.954Z,27.40
2022-08-23T15:20:28.597Z,27.00
2022-08-23T15:22:57.094Z,26.80
2022-08-23T15:25:28.923Z,26.60
2022-08-23T15:27:58.063Z,26.50
2022-08-23T15:30:30.376Z,26.60
2022-08-23T15:33:01.557Z,26.90
2022-08-23T15:35:39.894Z,27.10
2022-08-23T15:38:07.812Z,27.30
2022-08-23T15:40:37.752Z,27.50
2022-08-23T15:43:05.905Z,27.60
2022-08-23T15:45:42.053Z,27.90
2022-08-23T15:48:24.450Z,28.20
2022-08-23T15:50:53.397Z,28.40
2022-08-23T15:53:22.456Z,28.40
2022-08-23T15:55:51.344Z,28.50
2022-08-23T15:58:27.416Z,28.60
2022-08-23T16:00:57.752Z,28.80
2022-08-23T16:03:25.772Z,28.80
2022-08-23T16:05:53.468Z,28.70
2022-08-23T16:08:26.639Z,28.60
2022-08-23T16:10:55.565Z,28.60
2022-08-23T16:13:24.746Z,28.70
2022-08-23T16:15:53.702Z,28.80
2022-08-23T16:18:21.887Z,28.80
2022-08-23T16:20:48.601Z,28.80
2022-08-23T16:23:22.731Z,28.80
2022-08-23T16:25:51.699Z,28.90
2022-08-23T16:28:19.463Z,28.90
2022-08-23T16:30:46.252Z,28.90
2022-08-23T16:33:14.251Z,28.90
2022-08-23T16:35:42.288Z,28.90
2022-08-23T16:38:11.225Z,28.90
2022-08-23T16:40:37.958Z,28.80
2022-08-23T16:43:04.710Z,28.70
2022-08-23T16:45:32.653Z,28.70
2022-08-23T16:48:01.001Z,28.60
2022-08-23T16:50:29.463Z,28.50
2022-08-23T16:52:56.255Z,28.50
2022-08-23T16:55:23.063Z,28.50
2022-08-23T16:57:50.965Z,28.40
2022-08-23T17:00:19.519Z,28.40
2022-08-23T17:02:47.485Z,28.40
2022-08-23T17:05:18.792Z,28.30
2022-08-23T17:07:47.362Z,28.20
2022-08-23T17:10:17.380Z,28.00
2022-08-23T17:12:48.401Z,28.00
2022-08-23T17:15:21.979Z,27.90
2022-08-23T17:17:50.999Z,27.90
2022-08-23T17:20:21.666Z,27.80
2022-08-23T17:22:50.015Z,27.60
2022-08-23T17:25:20.097Z,27.50
2022-08-23T17:27:50.480Z,27.30
2022-08-23T17:30:21.758Z,27.20
2022-08-23T17:32:50.712Z,27.10
2022-08-23T17:35:22.479Z,26.90
2022-08-23T17:37:51.369Z,26.80
2022-08-23T17:40:27.403Z,26.70
2022-08-23T17:42:56.811Z,26.60
2022-08-23T17:45:24.569Z,26.30
2022-08-23T17:47:52.586Z,26.20
2022-08-23T17:50:22.305Z,26.00
2022-08-23T17:52:51.311Z,26.00
2022-08-23T17:55:22.163Z,25.90
2022-08-23T17:57:56.353Z,25.70
2022-08-23T18:00:27.764Z,25.60
2022-08-23T18:02:54.544Z,25.40
2022-08-23T18:05:22.840Z,25.30
2022-08-23T18:07:49.555Z,25.20
2022-08-23T18:10:16.310Z,25.10
2022-08-23T18:12:43.291Z,24.90
2022-08-23T18:15:11.772Z,24.80
2022-08-23T18:17:40.317Z,24.60
2022-08-23T18:20:10.789Z,24.50
2022-08-23T18:22:40.264Z,24.50
2022-08-23T18:25:08.690Z,24.40
2022-08-23T18:27:37.045Z,24.30
2022-08-23T18:30:09.144Z,24.20
2022-08-23T18:32:37.066Z,24.10
2022-08-23T18:35:06.262Z,24.00
2022-08-23T18:37:34.561Z,23.80
2022-08-23T18:40:01.318Z,23.70
2022-08-23T18:42:29.485Z,23.70
2022-08-23T18:44:57.463Z,23.60
2022-08-23T18:47:28.305Z,23.60
2022-08-23T18:49:56.366Z,23.50
2022-08-23T18:52:24.128Z,23.40
2022-08-23T18:54:50.803Z,23.40
2022-08-23T18:57:18.040Z,23.30
2022-08-23T18:59:46.001Z,23.20
2022-08-23T19:02:13.894Z,23.20
2022-08-23T19:04:41.920Z,23.10
2022-08-23T19:07:10.198Z,23.00
2022-08-23T19:09:38.514Z,23.00
2022-08-23T19:12:05.854Z,22.80
2022-08-23T19:14:34.111Z,22.80
2022-08-23T19:17:06.308Z,22.70
2022-08-23T19:19:35.005Z,22.70
2022-08-23T19:22:03.191Z,22.80
2022-08-23T19:24:31.657Z,22.70
2022-08-23T19:26:59.538Z,22.60
2022-08-23T19:29:27.371Z,22.60
2022-08-23T19:31:58.334Z,22.50
2022-08-23T19:34:26.507Z,22.40
2022-08-23T19:37:02.944Z,22.40
2022-08-23T19:39:31.140Z,22.30
2022-08-23T19:41:58.328Z,22.30
2022-08-23T19:44:25.159Z,22.20
2022-08-23T19:46:52.029Z,22.20
2022-08-23T19:49:19.998Z,22.20
2022-08-23T19:51:47.714Z,22.20
2022-08-23T19:54:16.161Z,22.20
2022-08-23T19:56:50.749Z,22.10
2022-08-23T19:59:21.499Z,22.10
2022-08-23T20:01:51.290Z,22.10
2022-08-23T20:04:20.549Z,22.00
2022-08-23T20:06:49.399Z,22.00
2022-08-23T20:09:18.990Z,22.00
2022-08-23T20:11:45.792Z,21.90
2022-08-23T20:14:12.734Z,21.90
2022-08-23T20:16:41.432Z,21.90
2022-08-23T20:19:10.395Z,21.90
2022-08-23T20:21:42.306Z,21.90
2022-08-23T20:24:14.305Z,21.80
2022-08-23T20:26:49.422Z,21.80
2022-08-23T20:29:22.057Z,21.80
2022-08-23T20:31:57.472Z,21.70
2022-08-23T20:34:27.113Z,21.70
2022-08-23T20:36:56.617Z,21.60
2022-08-23T20:39:24.670Z,21.60
2022-08-23T20:41:54.268Z,21.60
2022-08-23T20:44:26.735Z,21.50
2022-08-23T20:46:58.737Z,21.50
2022-08-23T20:49:30.300Z,21.50
2022-08-23T20:51:58.452Z,21.30
2022-08-23T20:54:25.143Z,21.20
2022-08-23T20:56:52.657Z,21.20
2022-08-23T20:59:20.986Z,21.20
2022-08-23T21:01:53.818Z,21.20
2022-08-23T21:04:21.839Z,21.10
2022-08-23T21:06:58.578Z,21.10
2022-08-23T21:09:29.436Z,21.00
2022-08-23T21:11:56.803Z,21.00
2022-08-23T21:14:24.834Z,20.90
2022-08-23T21:16:52.825Z,20.90
2022-08-23T21:19:21.110Z,20.90
2022-08-23T21:21:49.254Z,20.90
2022-08-23T21:24:16.202Z,20.80
2022-08-23T21:26:43.085Z,20.80
2022-08-23T21:29:11.108Z,20.80
2022-08-23T21:31:39.335Z,20.70
2022-08-23T21:34:07.838Z,20.60
2022-08-23T21:36:37.344Z,20.60
2022-08-23T21:39:05.264Z,20.60
2022-08-23T21:41:41.716Z,20.50
2022-08-23T21:44:13.060Z,20.50
2022-08-23T21:46:41.711Z,20.40
2022-08-23T21:49:12.272Z,20.40
2022-08-23T21:51:42.112Z,20.20
2022-08-23T21:54:11.068Z,20.10
2022-08-23T21:56:39.741Z,20.00
2022-08-23T21:59:10.731Z,19.90
2022-08-23T22:01:39.440Z,19.80
2022-08-23T22:04:08.553Z,19.70
2022-08-23T22:06:37.802Z,19.70
2022-08-23T22:09:08.655Z,19.70
2022-08-23T22:11:38.803Z,19.60
2022-08-23T22:14:08.881Z,19.60
2022-08-23T22:16:36.824Z,19.60
2022-08-23T22:19:05.097Z,19.60
2022-08-23T22:21:35.578Z,19.50
2022-08-23T22:24:02.927Z,19.50
2022-08-23T22:26:31.119Z,19.50
2022-08-23T22:28:59.123Z,19.50
2022-08-23T22:31:27.407Z,19.50
2022-08-23T22:33:55.326Z,19.40
2022-08-23T22:36:24.325Z,19.40
2022-08-23T22:38:54.751Z,19.40
2022-08-23T22:41:26.030Z,19.30
2022-08-23T22:43:55.533Z,19.20
2022-08-23T22:46:26.139Z,19.10
2022-08-23T22:48:57.569Z,19.10
2022-08-23T22:51:28.446Z,19.20
2022-08-23T22:53:59.415Z,19.20
2022-08-23T22:56:30.996Z,19.20
2022-08-23T22:58:59.226Z,19.30
2022-08-23T23:01:31.750Z,19.30
2022-08-23T23:04:08.129Z,19.40
2022-08-23T23:06:37.135Z,19.30
2022-08-23T23:09:07.881Z,19.30
2022-08-23T23:11:36.127Z,19.30
2022-08-23T23:14:05.476Z,19.30
2022-08-23T23:16:33.840Z,19.30
2022-08-23T23:19:01.990Z,19.20
2022-08-23T23:21:33.673Z,19.20
2022-08-23T23:24:02.161Z,19.20
2022-08-23T23:26:29.878Z,19.20
2022-08-23T23:28:57.919Z,19.20
2022-08-23T23:31:28.324Z,19.20
2022-08-23T23:33:56.338Z,19.10
2022-08-23T23:36:27.154Z,19.00
2022-08-23T23:38:57.794Z,18.90
2022-08-23T23:41:27.832Z,18.90
2022-08-23T23:43:56.045Z,18.90
2022-08-23T23:46:26.490Z,19.00
2022-08-23T23:49:02.618Z,19.00
2022-08-23T23:51:31.456Z,19.00
2022-08-23T23:54:01.116Z,19.00
2022-08-23T23:56:30.603Z,18.90
2022-08-23T23:59:02.072Z,18.90
